createdAt,value
2023-05-10T00:01:12.479Z,3.22
2023-05-10T00:03:45.030Z,2.20
2023-05-10T00:06:11.519Z,3.10
2023-05-10T00:08:37.967Z,2.50
2023-05-10T00:11:04.559Z,2.25
2023-05-10T00:13:31.330Z,3.08
2023-05-10T00:15:57.870Z,2.20
2023-05-10T00:18:24.376Z,2.50
2023-05-10T00:20:51.943Z,2.30
2023-05-10T00:23:18.405Z,2.60
2023-05-10T00:25:44.876Z,2.55
2023-05-10T00:28:11.382Z,2.53
2023-05-10T00:30:38.824Z,2.60
2023-05-10T00:33:05.329Z,2.15
2023-05-10T00:35:33.203Z,2.80
2023-05-10T00:37:59.675Z,2.65
2023-05-10T00:40:29.776Z,2.55
2023-05-10T00:42:56.673Z,2.28
2023-05-10T00:45:23.643Z,2.70
2023-05-10T00:47:50.229Z,2.50
2023-05-10T00:50:17.093Z,2.17
2023-05-10T00:52:43.878Z,2.35
2023-05-10T00:55:27.744Z,2.50
2023-05-10T00:57:54.468Z,2.08
2023-05-10T01:00:22.592Z,2.55
2023-05-10T01:02:50.761Z,2.38
2023-05-10T01:05:17.655Z,2.88
2023-05-10T01:07:44.207Z,2.67
2023-05-10T01:10:11.562Z,2.40
2023-05-10T01:12:40.712Z,2.53
2023-05-10T01:15:10.651Z,3.33
2023-05-10T01:17:39.962Z,2.35
2023-05-10T01:20:09.204Z,2.88
2023-05-10T01:23:05.171Z,2.40
2023-05-10T01:26:13.993Z,2.70
2023-05-10T01:29:07.316Z,3.20
2023-05-10T01:31:59.017Z,2.88
2023-05-10T01:34:35.552Z,2.90
2023-05-10T01:37:20.743Z,2.90
2023-05-10T01:39:55.456Z,2.88
2023-05-10T01:42:34.661Z,2.80
2023-05-10T01:45:21.127Z,2.67
2023-05-10T01:48:07.940Z,2.30
2023-05-10T01:50:37.231Z,2.50
2023-05-10T01:53:08.012Z,2.50
2023-05-10T01:55:40.252Z,2.70
2023-05-10T01:58:11.109Z,2.63
2023-05-10T02:00:41.605Z,2.70
2023-05-10T02:03:11.327Z,2.50
2023-05-10T02:05:39.457Z,2.97
2023-05-10T02:08:10.697Z,2.30
2023-05-10T02:10:38.635Z,2.40
2023-05-10T02:13:08.101Z,2.53
2023-05-10T02:15:36.276Z,2.42
2023-05-10T02:18:04.791Z,2.75
2023-05-10T02:20:32.925Z,2.45
2023-05-10T02:23:00.472Z,2.35
2023-05-10T02:25:28.129Z,2.10
2023-05-10T02:27:57.056Z,2.80
2023-05-10T02:30:24.842Z,2.75
2023-05-10T02:32:53.400Z,3.28
2023-05-10T02:35:20.859Z,2.70
2023-05-10T02:37:48.810Z,2.70
2023-05-10T02:40:18.724Z,2.33
2023-05-10T02:42:48.354Z,2.60
2023-05-10T02:45:22.899Z,2.42
2023-05-10T02:47:49.673Z,2.78
2023-05-10T02:50:16.789Z,2.83
2023-05-10T02:52:55.288Z,2.38
2023-05-10T02:55:43.028Z,2.75
2023-05-10T02:58:09.652Z,2.58
2023-05-10T03:00:37.292Z,2.92
2023-05-10T03:03:03.964Z,3.15
2023-05-10T03:05:30.569Z,2.58
2023-05-10T03:07:57.584Z,2.50
2023-05-10T03:10:29.552Z,2.47
2023-05-10T03:13:21.940Z,2.65
2023-05-10T03:15:54.400Z,2.50
2023-05-10T03:18:34.812Z,2.17
2023-05-10T03:21:11.755Z,2.50
2023-05-10T03:23:47.343Z,2.70
2023-05-10T03:26:21.552Z,2.53
2023-05-10T03:28:49.474Z,2.63
2023-05-10T03:31:16.454Z,2.70
2023-05-10T03:33:53.593Z,3.03
2023-05-10T03:36:20.749Z,2.33
2023-05-10T03:38:50.452Z,2.38
2023-05-10T03:41:17.216Z,2.58
2023-05-10T03:43:43.667Z,2.20
2023-05-10T03:46:12.240Z,2.70
2023-05-10T03:48:38.742Z,2.95
2023-05-10T03:51:05.251Z,2.58
2023-05-10T03:53:43.952Z,2.70
2023-05-10T03:56:10.414Z,2.20
2023-05-10T03:58:36.892Z,2.30
2023-05-10T04:01:03.493Z,2.53
2023-05-10T04:03:30.041Z,2.58
2023-05-10T04:06:01.434Z,2.67
2023-05-10T04:08:27.976Z,2.53
2023-05-10T04:11:12.069Z,2.70
2023-05-10T04:13:39.059Z,2.90
2023-05-10T04:16:06.096Z,2.95
2023-05-10T04:18:32.865Z,2.90
2023-05-10T04:21:01.551Z,2.70
2023-05-10T04:23:28.883Z,2.85
2023-05-10T04:26:02.230Z,4.20
2023-05-10T04:28:28.870Z,3.20
2023-05-10T04:31:05.443Z,3.25
2023-05-10T04:33:32.550Z,3.22
2023-05-10T04:35:59.818Z,3.28
2023-05-10T04:38:29.340Z,2.90
2023-05-10T04:41:04.292Z,2.75
2023-05-10T04:43:30.804Z,3.38
2023-05-10T04:45:57.979Z,3.30
2023-05-10T04:48:24.513Z,3.38
2023-05-10T04:50:51.018Z,3.70
2023-05-10T04:53:17.566Z,2.88
2023-05-10T04:55:44.007Z,3.15
2023-05-10T04:58:10.561Z,3.10
2023-05-10T05:00:37.200Z,3.00
2023-05-10T05:03:03.901Z,3.17
2023-05-10T05:05:30.539Z,3.03
2023-05-10T05:07:58.034Z,3.25
2023-05-10T05:10:24.522Z,3.60
2023-05-10T05:12:51.047Z,3.22
2023-05-10T05:15:17.932Z,3.05
2023-05-10T05:17:44.650Z,3.10
2023-05-10T05:20:11.771Z,3.30
2023-05-10T05:22:38.725Z,3.17
2023-05-10T05:25:05.996Z,3.90
2023-05-10T05:27:47.764Z,3.60
2023-05-10T05:32:41.362Z,3.92
2023-05-10T05:35:08.288Z,3.30
2023-05-10T05:37:36.798Z,3.05
2023-05-10T05:40:03.613Z,3.72
2023-05-10T05:42:35.324Z,3.60
2023-05-10T05:47:28.610Z,3.83
2023-05-10T05:49:55.099Z,3.50
2023-05-10T05:52:22.239Z,3.35
2023-05-10T05:54:48.869Z,3.75
2023-05-10T05:57:15.343Z,3.08
2023-05-10T05:59:44.787Z,3.38
2023-05-10T06:02:13.366Z,3.95
2023-05-10T06:04:41.534Z,3.92
2023-05-10T06:07:09.343Z,3.65
2023-05-10T06:09:35.810Z,4.28
2023-05-10T06:12:02.613Z,5.15
2023-05-10T06:14:29.071Z,4.03
2023-05-10T06:16:55.973Z,4.30
2023-05-10T06:19:22.640Z,5.53
2023-05-10T06:21:49.285Z,4.28
2023-05-10T06:24:15.756Z,4.53
2023-05-10T06:26:42.257Z,5.47
2023-05-10T06:29:16.252Z,4.07
2023-05-10T06:31:42.880Z,5.38
2023-05-10T06:34:09.452Z,5.05
2023-05-10T06:36:38.012Z,5.18
2023-05-10T06:39:04.570Z,4.63
2023-05-10T06:41:32.094Z,4.47
2023-05-10T06:43:58.592Z,6.13
2023-05-10T06:46:25.171Z,4.60
2023-05-10T06:48:51.690Z,4.10
2023-05-10T06:51:18.806Z,4.40
2023-05-10T06:53:46.309Z,4.80
2023-05-10T06:56:13.002Z,4.97
2023-05-10T06:58:40.612Z,4.70
2023-05-10T07:01:07.149Z,4.70
2023-05-10T07:03:33.789Z,4.80
2023-05-10T07:06:04.765Z,4.93
2023-05-10T07:08:32.711Z,5.80
2023-05-10T07:11:08.059Z,5.60
2023-05-10T07:13:35.237Z,6.13
2023-05-10T07:16:08.856Z,5.50
2023-05-10T07:18:35.427Z,4.68
2023-05-10T07:21:09.613Z,5.25
2023-05-10T07:23:36.521Z,5.47
2023-05-10T07:26:10.423Z,6.45
2023-05-10T07:28:38.526Z,6.63
2023-05-10T07:31:14.834Z,5.43
2023-05-10T07:33:49.221Z,5.53
2023-05-10T07:36:15.676Z,6.45
2023-05-10T07:38:42.229Z,5.82
2023-05-10T07:41:08.696Z,6.15
2023-05-10T07:43:35.194Z,5.85
2023-05-10T07:46:02.113Z,5.82
2023-05-10T07:48:28.580Z,6.05
2023-05-10T07:50:55.110Z,5.07
2023-05-10T07:53:21.792Z,6.78
2023-05-10T07:55:52.741Z,6.30
2023-05-10T07:58:19.321Z,5.18
2023-05-10T08:00:46.225Z,5.13
2023-05-10T08:03:12.946Z,5.45
2023-05-10T08:05:39.627Z,4.82
2023-05-10T08:08:06.230Z,4.50
2023-05-10T08:10:32.908Z,4.78
2023-05-10T08:12:59.571Z,5.78
2023-05-10T08:15:33.976Z,4.82
2023-05-10T08:18:00.679Z,5.07
2023-05-10T08:20:28.264Z,4.53
2023-05-10T08:22:54.793Z,4.63
2023-05-10T08:25:21.257Z,4.53
2023-05-10T08:27:48.755Z,3.92
2023-05-10T08:30:15.409Z,4.95
2023-05-10T08:32:41.919Z,3.92
2023-05-10T08:35:08.528Z,3.05
2023-05-10T08:37:34.992Z,3.30
2023-05-10T08:40:01.566Z,2.60
2023-05-10T08:42:44.348Z,2.70
2023-05-10T08:45:12.389Z,2.45
2023-05-10T08:47:40.153Z,2.58
2023-05-10T08:50:07.922Z,2.53
2023-05-10T08:52:39.717Z,2.40
2023-05-10T08:55:06.501Z,2.00
2023-05-10T08:57:33.090Z,1.83
2023-05-10T09:00:02.210Z,2.10
2023-05-10T09:02:28.762Z,1.80
2023-05-10T09:04:55.505Z,1.98
2023-05-10T09:07:22.080Z,1.90
2023-05-10T09:09:49.465Z,1.40
2023-05-10T09:12:18.003Z,1.85
2023-05-10T09:14:45.797Z,1.40
2023-05-10T09:17:12.717Z,1.45
2023-05-10T09:19:39.179Z,1.45
2023-05-10T09:22:07.041Z,1.42
2023-05-10T09:24:33.572Z,1.58
2023-05-10T09:27:00.058Z,1.42
2023-05-10T09:29:26.642Z,1.30
2023-05-10T09:31:55.519Z,1.55
2023-05-10T09:34:30.718Z,1.20
2023-05-10T09:36:59.165Z,1.60
2023-05-10T09:39:35.867Z,1.25
2023-05-10T09:42:11.294Z,1.10
2023-05-10T09:44:39.022Z,1.23
2023-05-10T09:47:05.602Z,1.10
2023-05-10T09:49:32.411Z,1.45
2023-05-10T09:52:04.492Z,1.00
2023-05-10T09:54:31.513Z,1.05
2023-05-10T09:56:58.234Z,0.90
2023-05-10T09:59:28.269Z,0.80
2023-05-10T10:02:00.692Z,0.90
2023-05-10T10:04:27.910Z,0.88
2023-05-10T10:07:02.018Z,0.90
2023-05-10T10:09:29.424Z,0.80
2023-05-10T10:11:56.678Z,1.00
2023-05-10T10:14:24.925Z,0.63
2023-05-10T10:17:05.727Z,0.70
2023-05-10T10:19:36.641Z,0.80
2023-05-10T10:22:03.845Z,0.85
2023-05-10T10:24:30.440Z,0.80
2023-05-10T10:27:05.305Z,0.90
2023-05-10T10:29:40.760Z,0.70
2023-05-10T10:32:43.377Z,0.70
2023-05-10T10:35:10.453Z,0.80
2023-05-10T10:37:48.160Z,1.00
2023-05-10T10:40:35.092Z,0.80
2023-05-10T10:43:27.793Z,0.75
2023-05-10T10:46:15.405Z,0.70
2023-05-10T10:48:47.946Z,0.60
2023-05-10T10:51:14.914Z,0.68
2023-05-10T10:53:42.049Z,0.70
2023-05-10T10:56:11.026Z,0.80
2023-05-10T10:58:40.509Z,0.55
2023-05-10T11:01:12.780Z,0.68
2023-05-10T11:03:39.537Z,0.75
2023-05-10T11:06:12.188Z,0.80
2023-05-10T11:08:45.175Z,0.70
2023-05-10T11:11:15.839Z,0.77
2023-05-10T11:13:49.281Z,0.80
2023-05-10T11:16:19.360Z,0.73
2023-05-10T11:19:06.675Z,0.60
2023-05-10T11:21:44.871Z,0.70
2023-05-10T11:24:16.822Z,0.70
2023-05-10T11:26:43.648Z,0.80
2023-05-10T11:29:11.364Z,0.60
2023-05-10T11:31:44.908Z,0.50
2023-05-10T11:34:12.064Z,0.57
2023-05-10T11:36:38.694Z,0.60
2023-05-10T11:39:05.696Z,0.75
2023-05-10T11:41:32.538Z,0.80
2023-05-10T11:43:59.533Z,0.60
2023-05-10T11:46:30.535Z,0.63
2023-05-10T11:49:02.614Z,0.60
2023-05-10T11:51:29.112Z,0.50
2023-05-10T11:53:57.377Z,0.50
2023-05-10T11:56:27.527Z,0.50
2023-05-10T11:58:58.405Z,0.68
2023-05-10T12:01:32.308Z,0.80
2023-05-10T12:04:01.103Z,0.60
2023-05-10T12:06:30.502Z,0.40
2023-05-10T12:08:57.053Z,0.47
2023-05-10T12:11:27.174Z,0.22
2023-05-10T12:13:57.171Z,0.40
2023-05-10T12:16:26.615Z,0.30
2023-05-10T12:18:55.000Z,0.35
2023-05-10T12:21:30.102Z,0.47
2023-05-10T12:24:01.315Z,0.50
2023-05-10T12:26:30.526Z,0.50
2023-05-10T12:29:13.522Z,0.50
2023-05-10T12:31:58.462Z,0.30
2023-05-10T12:34:26.825Z,0.40
2023-05-10T12:36:55.048Z,0.68
2023-05-10T12:39:24.086Z,0.50
2023-05-10T12:41:51.337Z,0.50
2023-05-10T12:44:26.010Z,0.57
2023-05-10T12:46:52.462Z,0.50
2023-05-10T12:49:19.977Z,0.50
2023-05-10T12:51:47.585Z,0.90
2023-05-10T12:54:14.119Z,0.80
2023-05-10T12:56:41.865Z,0.88
2023-05-10T12:59:08.443Z,1.08
2023-05-10T13:01:34.918Z,1.20
2023-05-10T13:04:01.490Z,0.68
2023-05-10T13:06:29.088Z,1.00
2023-05-10T13:08:55.599Z,0.90
2023-05-10T13:11:22.512Z,0.70
2023-05-10T13:13:49.032Z,0.93
2023-05-10T13:16:15.666Z,1.17
2023-05-10T13:18:42.176Z,1.50
2023-05-10T13:21:08.690Z,0.90
2023-05-10T13:23:35.596Z,1.00
2023-05-10T13:26:02.098Z,0.93
2023-05-10T13:28:28.691Z,0.82
2023-05-10T13:31:06.192Z,0.95
2023-05-10T13:33:32.685Z,0.80
2023-05-10T13:35:59.229Z,0.80
2023-05-10T13:38:25.779Z,0.80
2023-05-10T13:40:53.738Z,0.80
2023-05-10T13:43:21.538Z,0.90
2023-05-10T13:45:48.103Z,1.10
2023-05-10T13:48:14.578Z,1.25
2023-05-10T13:50:41.204Z,1.25
2023-05-10T13:53:07.750Z,1.00
2023-05-10T13:55:40.390Z,1.20
2023-05-10T13:58:06.853Z,1.20
2023-05-10T14:00:37.563Z,1.23
2023-05-10T14:03:05.917Z,1.20
2023-05-10T14:05:32.538Z,1.10
2023-05-10T14:07:59.132Z,1.20
2023-05-10T14:10:25.881Z,1.45
2023-05-10T14:12:52.601Z,1.30
2023-05-10T14:15:19.261Z,1.10
2023-05-10T14:17:51.118Z,1.40
2023-05-10T14:20:17.644Z,1.45
2023-05-10T14:22:44.123Z,1.50
2023-05-10T14:25:10.606Z,1.40
2023-05-10T14:27:37.570Z,1.40
2023-05-10T14:30:06.773Z,1.83
2023-05-10T14:32:38.581Z,1.27
2023-05-10T14:35:07.016Z,1.88
2023-05-10T14:37:33.710Z,1.50
2023-05-10T14:40:00.282Z,1.75
2023-05-10T14:42:26.807Z,2.00
2023-05-10T14:44:53.314Z,1.85
2023-05-10T14:47:19.768Z,2.88
2023-05-10T14:49:46.236Z,2.15
2023-05-10T14:52:13.325Z,1.48
2023-05-10T14:54:40.030Z,1.23
2023-05-10T14:57:07.445Z,1.42
2023-05-10T14:59:33.933Z,2.35
2023-05-10T15:02:00.821Z,2.05
2023-05-10T15:04:28.513Z,2.05
2023-05-10T15:07:00.196Z,1.30
2023-05-10T15:09:28.460Z,1.42
2023-05-10T15:11:55.872Z,1.80
2023-05-10T15:14:23.294Z,1.20
2023-05-10T15:16:49.776Z,1.27
2023-05-10T15:19:16.223Z,1.15
2023-05-10T15:21:45.134Z,1.10
2023-05-10T15:24:11.648Z,1.25
2023-05-10T15:26:44.762Z,1.48
2023-05-10T15:29:11.331Z,1.40
2023-05-10T15:31:37.875Z,1.20
2023-05-10T15:34:19.067Z,1.15
2023-05-10T15:36:46.336Z,1.50
2023-05-10T15:39:13.835Z,1.58
2023-05-10T15:41:40.411Z,1.60
2023-05-10T15:44:07.170Z,1.35
2023-05-10T15:46:33.732Z,2.20
2023-05-10T15:49:00.386Z,1.90
2023-05-10T15:51:35.385Z,2.70
2023-05-10T15:54:06.928Z,2.05
2023-05-10T15:56:38.473Z,1.80
2023-05-10T15:59:06.177Z,1.58
2023-05-10T16:01:33.187Z,1.75
2023-05-10T16:04:00.067Z,1.60
2023-05-10T16:06:39.662Z,1.55
2023-05-10T16:09:06.131Z,1.42
2023-05-10T16:11:32.652Z,1.30
2023-05-10T16:14:00.024Z,1.58
2023-05-10T16:16:26.620Z,1.35
2023-05-10T16:18:53.506Z,1.48
2023-05-10T16:21:20.074Z,1.50
2023-05-10T16:23:46.631Z,1.30
2023-05-10T16:26:13.270Z,1.30
2023-05-10T16:28:40.964Z,1.20
2023-05-10T16:31:07.627Z,1.52
2023-05-10T16:33:36.935Z,1.50
2023-05-10T16:36:04.457Z,2.53
2023-05-10T16:38:31.642Z,2.20
2023-05-10T16:40:58.140Z,2.55
2023-05-10T16:43:26.137Z,1.90
2023-05-10T16:45:52.961Z,1.90
2023-05-10T16:48:19.519Z,1.52
2023-05-10T16:50:46.039Z,1.95
2023-05-10T16:53:12.702Z,1.90
2023-05-10T16:55:45.328Z,1.80
2023-05-10T16:58:11.934Z,1.83
2023-05-10T17:00:38.455Z,1.80
2023-05-10T17:03:05.026Z,1.50
2023-05-10T17:05:31.641Z,1.45
2023-05-10T17:08:04.103Z,1.30
2023-05-10T17:10:30.732Z,1.60
2023-05-10T17:12:57.225Z,1.40
2023-05-10T17:15:23.847Z,1.00
2023-05-10T17:17:50.378Z,1.10
2023-05-10T17:20:18.000Z,1.20
2023-05-10T17:22:44.483Z,1.17
2023-05-10T17:25:11.103Z,1.20
2023-05-10T17:27:37.630Z,1.00
2023-05-10T17:30:04.619Z,1.13
2023-05-10T17:32:37.142Z,1.02
2023-05-10T17:35:05.187Z,1.30
2023-05-10T17:37:33.316Z,1.10
2023-05-10T17:40:00.946Z,1.20
2023-05-10T17:42:27.465Z,1.33
2023-05-10T17:44:56.208Z,1.25
2023-05-10T17:47:22.792Z,1.45
2023-05-10T17:49:58.433Z,1.67
2023-05-10T17:52:24.932Z,1.75
2023-05-10T17:54:52.160Z,2.17
2023-05-10T17:57:18.721Z,1.73
2023-05-10T17:59:45.166Z,1.52
2023-05-10T18:02:11.625Z,1.60
2023-05-10T18:04:40.225Z,1.50
2023-05-10T18:07:07.872Z,1.73
2023-05-10T18:09:35.731Z,1.50
2023-05-10T18:12:03.394Z,1.90
2023-05-10T18:14:39.636Z,1.90
2023-05-10T18:17:07.103Z,1.52
2023-05-10T18:19:34.102Z,1.85
2023-05-10T18:22:00.682Z,1.30
2023-05-10T18:24:39.216Z,1.50
2023-05-10T18:27:08.719Z,1.60
2023-05-10T18:29:39.605Z,1.80
2023-05-10T18:32:08.255Z,1.80
2023-05-10T18:34:34.836Z,1.33
2023-05-10T18:37:02.976Z,1.70
2023-05-10T18:39:29.668Z,1.35
2023-05-10T18:41:56.135Z,1.20
2023-05-10T18:44:25.874Z,0.95
2023-05-10T18:46:54.205Z,1.85
2023-05-10T18:49:20.740Z,1.13
2023-05-10T18:51:47.297Z,1.20
2023-05-10T18:54:20.190Z,1.45
2023-05-10T18:56:47.331Z,1.10
2023-05-10T18:59:14.323Z,1.10
2023-05-10T19:01:41.747Z,1.17
2023-05-10T19:04:11.254Z,1.13
2023-05-10T19:06:37.824Z,1.13
2023-05-10T19:09:04.535Z,1.45
2023-05-10T19:11:36.946Z,1.10
2023-05-10T19:14:05.733Z,1.20
2023-05-10T19:16:34.411Z,1.20
2023-05-10T19:19:01.985Z,1.27
2023-05-10T19:21:28.562Z,1.98
2023-05-10T19:23:57.777Z,2.20
2023-05-10T19:26:24.355Z,1.73
2023-05-10T19:28:53.632Z,1.50
2023-05-10T19:31:23.669Z,1.38
2023-05-10T19:33:50.477Z,1.50
2023-05-10T19:36:17.017Z,1.33
2023-05-10T19:38:43.541Z,1.65
2023-05-10T19:41:11.337Z,1.23
2023-05-10T19:43:38.514Z,1.05
2023-05-10T19:46:08.974Z,1.20
2023-05-10T19:48:35.720Z,1.30
2023-05-10T19:51:03.807Z,1.15
2023-05-10T19:53:30.581Z,1.20
2023-05-10T19:56:02.858Z,1.20
2023-05-10T19:58:29.704Z,1.10
2023-05-10T20:00:56.172Z,1.20
2023-05-10T20:03:22.869Z,1.30
2023-05-10T20:05:49.375Z,1.77
2023-05-10T20:08:16.243Z,1.50
2023-05-10T20:10:42.757Z,1.50
2023-05-10T20:13:09.426Z,1.38
2023-05-10T20:15:35.936Z,1.40
2023-05-10T20:18:03.726Z,1.65
2023-05-10T20:20:30.548Z,1.42
2023-05-10T20:23:04.014Z,1.35
2023-05-10T20:25:30.580Z,1.30
2023-05-10T20:28:00.097Z,1.45
2023-05-10T20:30:26.806Z,1.20
2023-05-10T20:32:53.320Z,1.20
2023-05-10T20:35:19.862Z,1.30
2023-05-10T20:37:48.297Z,1.20
2023-05-10T20:40:18.505Z,1.80
2023-05-10T20:42:47.685Z,1.80
2023-05-10T20:45:14.393Z,1.77
2023-05-10T20:47:43.058Z,1.50
2023-05-10T20:50:09.870Z,1.15
2023-05-10T20:52:39.495Z,1.60
2023-05-10T20:55:14.668Z,1.23
2023-05-10T20:57:41.282Z,1.60
2023-05-10T21:00:09.425Z,1.63
2023-05-10T21:02:43.365Z,1.58
2023-05-10T21:05:10.039Z,1.20
2023-05-10T21:07:36.732Z,1.70
2023-05-10T21:10:03.338Z,1.25
2023-05-10T21:12:29.805Z,1.63
2023-05-10T21:14:56.291Z,1.10
2023-05-10T21:17:22.763Z,1.40
2023-05-10T21:19:58.373Z,1.40
2023-05-10T21:22:24.935Z,1.38
2023-05-10T21:24:51.530Z,1.40
2023-05-10T21:27:20.062Z,1.50
2023-05-10T21:29:46.632Z,1.35
2023-05-10T21:32:13.304Z,1.45
2023-05-10T21:34:39.779Z,1.50
2023-05-10T21:37:06.423Z,1.50
2023-05-10T21:39:32.913Z,1.52
2023-05-10T21:42:00.287Z,1.50
2023-05-10T21:44:26.762Z,1.40
2023-05-10T21:46:53.209Z,1.50
2023-05-10T21:49:19.686Z,1.63
2023-05-10T21:51:46.198Z,1.50
2023-05-10T21:54:12.778Z,1.25
2023-05-10T21:56:39.234Z,1.60
2023-05-10T21:59:06.082Z,1.60
2023-05-10T22:01:32.542Z,1.40
2023-05-10T22:03:59.040Z,1.50
2023-05-10T22:06:25.506Z,1.50
2023-05-10T22:08:51.982Z,1.60
2023-05-10T22:11:18.517Z,1.60
2023-05-10T22:13:44.952Z,1.60
2023-05-10T22:16:11.425Z,1.70
2023-05-10T22:18:37.967Z,1.60
2023-05-10T22:21:04.702Z,1.40
2023-05-10T22:23:31.264Z,1.70
2023-05-10T22:26:04.417Z,1.55
2023-05-10T22:28:30.926Z,1.35
2023-05-10T22:30:57.533Z,1.55
2023-05-10T22:33:24.114Z,1.50
2023-05-10T22:35:50.883Z,1.77
2023-05-10T22:38:20.535Z,1.70
2023-05-10T22:40:46.965Z,1.73
2023-05-10T22:43:13.468Z,1.55
2023-05-10T22:45:40.378Z,1.52
2023-05-10T22:48:09.492Z,1.60
2023-05-10T22:50:38.108Z,1.92
2023-05-10T22:53:04.702Z,1.73
2023-05-10T22:55:31.223Z,1.70
2023-05-10T22:57:58.964Z,1.70
2023-05-10T23:00:25.661Z,1.67
2023-05-10T23:02:52.933Z,1.63
2023-05-10T23:05:19.619Z,1.55
2023-05-10T23:07:48.481Z,2.30
2023-05-10T23:10:17.715Z,2.00
2023-05-10T23:12:44.381Z,2.20
2023-05-10T23:15:11.635Z,1.77
2023-05-10T23:17:38.141Z,1.88
2023-05-10T23:20:05.034Z,1.70
2023-05-10T23:22:31.905Z,1.83
2023-05-10T23:24:58.374Z,2.03
2023-05-10T23:27:29.272Z,1.67
2023-05-10T23:29:55.994Z,1.80
2023-05-10T23:32:23.576Z,1.88
2023-05-10T23:34:50.119Z,2.25
2023-05-10T23:37:38.327Z,2.50
2023-05-10T23:40:05.581Z,2.40
2023-05-10T23:42:32.583Z,2.40
2023-05-10T23:44:59.089Z,2.00
2023-05-10T23:47:25.708Z,2.28
2023-05-10T23:49:55.349Z,2.03
2023-05-10T23:52:30.515Z,2.20
2023-05-10T23:54:56.955Z,2.08
2023-05-10T23:57:23.518Z,2.10
2023-05-10T23:59:50.043Z,2.47
